Terminal Aerodrome Forecast
Issued by NWS Goodland, KS

Home | Current Version | Previous Version | Text Only | Print | Product List | Glossary On
Versions: 1 2 3 4 5 6 7 8 9 10 11 12 13 14 15 16 17 18 19 20
000
FTUS43 KGLD 251407 AAD
TAFGLD
TAF AMD
KGLD 251407Z 2514/2612 VRB15G30KT 6SM SHRA FEW050 SCT120
      TEMPO 2515/2517 3SM TSRA BR BKN010CB
     FM252200 13011KT P6SM BKN035
     FM260800 17006KT P6SM SCT025=

USA.gov is the U.S. government's official web portal to all federal, state and local government web resources and services.